createdAt,value
2022-12-01T00:00:56.587Z,14.60
2022-12-01T00:03:47.339Z,15.40
2022-12-01T00:06:41.768Z,15.00
2022-12-01T00:09:54.684Z,14.30
2022-12-01T00:12:45.159Z,14.30
2022-12-01T00:15:43.363Z,13.50
2022-12-01T00:18:33.871Z,14.00
2022-12-01T00:21:25.172Z,13.50
2022-12-01T00:24:15.883Z,14.10
2022-12-01T00:27:06.785Z,13.20
2022-12-01T00:30:07.879Z,12.90
2022-12-01T00:32:58.505Z,12.50
2022-12-01T00:35:49.325Z,13.60
2022-12-01T00:38:39.862Z,12.50
2022-12-01T00:41:36.559Z,12.20
2022-12-01T00:44:27.263Z,12.10
2022-12-01T00:47:24.450Z,12.10
2022-12-01T00:50:18.592Z,11.50
2022-12-01T00:53:09.612Z,12.10
2022-12-01T00:56:00.336Z,11.00
2022-12-01T00:58:50.966Z,11.10
2022-12-01T01:01:41.999Z,11.00
2022-12-01T01:04:32.920Z,10.60
2022-12-01T01:07:24.010Z,10.50
2022-12-01T01:10:22.183Z,10.50
2022-12-01T01:13:16.314Z,10.00
2022-12-01T01:16:14.155Z,9.90
2022-12-01T01:19:11.805Z,9.70
2022-12-01T01:22:02.461Z,10.00
2022-12-01T01:24:53.375Z,9.70
2022-12-01T01:27:50.755Z,9.50
2022-12-01T01:30:41.984Z,9.10
2022-12-01T01:33:32.560Z,9.40
2022-12-01T01:36:23.275Z,9.10
2022-12-01T01:39:17.470Z,9.20
2022-12-01T01:42:17.893Z,9.00
2022-12-01T01:45:23.636Z,8.50
2022-12-01T01:48:20.453Z,9.00
2022-12-01T01:51:14.674Z,9.00
2022-12-01T01:54:15.066Z,8.30
2022-12-01T01:57:13.748Z,7.90
2022-12-01T02:00:11.725Z,8.10
2022-12-01T02:03:15.124Z,8.20
2022-12-01T02:06:09.531Z,8.10
2022-12-01T02:09:03.612Z,7.70
2022-12-01T02:12:10.768Z,8.20
2022-12-01T02:15:18.018Z,8.10
2022-12-01T02:18:25.624Z,7.60
2022-12-01T02:21:41.837Z,6.70
2022-12-01T02:24:53.500Z,7.50
2022-12-01T02:28:24.132Z,7.80
2022-12-01T02:31:23.051Z,6.90
2022-12-01T02:34:17.183Z,7.20
2022-12-01T02:37:21.111Z,7.00
2022-12-01T02:40:15.425Z,7.80
2022-12-01T02:43:10.168Z,7.40
2022-12-01T02:46:10.268Z,7.00
2022-12-01T02:49:10.114Z,6.30
2022-12-01T02:52:07.849Z,6.90
2022-12-01T02:55:04.963Z,6.70
2022-12-01T02:58:02.555Z,6.90
2022-12-01T03:01:10.468Z,6.80
2022-12-01T03:04:13.630Z,6.70
2022-12-01T03:07:11.340Z,6.60
2022-12-01T03:10:17.825Z,6.20
2022-12-01T03:16:18.336Z,6.20
2022-12-01T03:19:14.764Z,5.70
2022-12-01T03:22:13.840Z,5.90
2022-12-01T03:25:10.690Z,6.50
2022-12-01T03:28:24.068Z,5.90
2022-12-01T03:31:20.421Z,6.20
2022-12-01T03:34:22.759Z,5.70
2022-12-01T03:37:17.497Z,5.80
2022-12-01T03:40:17.882Z,5.90
2022-12-01T03:43:10.829Z,5.40
2022-12-01T03:46:10.445Z,5.80
2022-12-01T03:49:03.302Z,5.60
2022-12-01T03:52:01.047Z,5.40
2022-12-01T03:54:59.087Z,5.70
2022-12-01T03:57:57.287Z,5.50
2022-12-01T04:00:49.363Z,5.40
2022-12-01T04:03:44.061Z,5.00
2022-12-01T04:06:38.585Z,5.90
2022-12-01T04:09:35.701Z,5.00
2022-12-01T04:12:29.297Z,4.70
2022-12-01T04:15:23.908Z,4.90
2022-12-01T04:18:20.751Z,4.90
2022-12-01T04:21:11.379Z,5.00
2022-12-01T04:24:01.882Z,4.70
2022-12-01T04:26:52.392Z,4.90
2022-12-01T04:29:49.854Z,4.90
2022-12-01T04:32:42.157Z,4.60
2022-12-01T04:35:32.675Z,4.70
2022-12-01T04:38:28.863Z,5.00
2022-12-01T04:41:20.970Z,5.60
2022-12-01T04:44:12.232Z,6.20
2022-12-01T04:47:02.682Z,5.80
2022-12-01T04:49:53.951Z,6.50
2022-12-01T04:52:44.349Z,6.30
2022-12-01T04:55:39.279Z,7.10
2022-12-01T04:58:29.755Z,7.50
2022-12-01T05:01:20.644Z,7.50
2022-12-01T05:04:13.561Z,8.00
2022-12-01T05:07:04.020Z,8.70
2022-12-01T05:09:54.547Z,9.10
2022-12-01T05:12:46.210Z,9.70
2022-12-01T05:15:36.850Z,9.90
2022-12-01T05:18:27.378Z,9.60
2022-12-01T05:21:18.038Z,9.90
2022-12-01T05:24:09.320Z,9.60
2022-12-01T05:26:59.753Z,9.60
2022-12-01T05:29:57.595Z,9.90
2022-12-01T05:33:12.701Z,9.10
2022-12-01T05:36:11.236Z,8.90
2022-12-01T05:39:09.705Z,9.00
2022-12-01T05:42:06.919Z,8.40
2022-12-01T05:45:07.828Z,8.20
2022-12-01T05:48:05.815Z,8.00
2022-12-01T05:51:07.974Z,8.80
2022-12-01T05:54:07.042Z,8.00
2022-12-01T05:57:05.142Z,8.00
2022-12-01T05:59:55.803Z,7.70
2022-12-01T06:02:46.395Z,8.10
2022-12-01T06:05:43.971Z,8.50
2022-12-01T06:08:34.559Z,7.90
2022-12-01T06:11:31.682Z,8.50
2022-12-01T06:14:22.428Z,8.00
2022-12-01T06:17:13.048Z,8.90
2022-12-01T06:20:04.597Z,7.90
2022-12-01T06:22:55.181Z,8.60
2022-12-01T06:25:46.130Z,8.30
2022-12-01T06:28:36.931Z,8.20
2022-12-01T06:31:27.499Z,8.50
2022-12-01T06:34:18.056Z,8.40
2022-12-01T06:37:08.797Z,7.90
2022-12-01T06:39:59.332Z,8.70
2022-12-01T06:42:49.823Z,8.90
2022-12-01T06:45:40.599Z,8.80
2022-12-01T06:48:31.360Z,8.80
2022-12-01T06:51:21.987Z,9.10
2022-12-01T06:54:14.719Z,9.20
2022-12-01T06:57:05.333Z,9.60
2022-12-01T06:59:56.426Z,9.60
2022-12-01T07:02:47.411Z,9.50
2022-12-01T07:05:38.404Z,9.90
2022-12-01T07:08:29.162Z,9.90
2022-12-01T07:11:19.737Z,10.60
2022-12-01T07:14:16.500Z,10.10
2022-12-01T07:17:07.714Z,9.60
2022-12-01T07:19:58.676Z,9.90
2022-12-01T07:22:49.814Z,9.40
2022-12-01T07:25:40.553Z,9.20
2022-12-01T07:28:31.211Z,9.60
2022-12-01T07:31:21.780Z,9.20
2022-12-01T07:34:13.508Z,9.80
2022-12-01T07:37:04.074Z,8.10
2022-12-01T07:39:54.939Z,10.10
2022-12-01T07:42:45.431Z,11.80
2022-12-01T07:45:37.077Z,12.10
2022-12-01T07:48:29.174Z,14.00
2022-12-01T07:51:20.135Z,13.70
2022-12-01T07:54:13.656Z,13.10
2022-12-01T07:57:04.711Z,13.80
2022-12-01T07:59:55.583Z,15.00
2022-12-01T08:02:46.704Z,14.10
2022-12-01T08:05:37.360Z,13.80
2022-12-01T08:08:28.514Z,13.50
2022-12-01T08:11:21.801Z,13.80
2022-12-01T08:14:12.399Z,14.30
2022-12-01T08:17:02.985Z,14.10
2022-12-01T08:19:53.526Z,14.30
2022-12-01T08:22:44.017Z,13.20
2022-12-01T08:25:34.518Z,13.60
2022-12-01T08:28:25.091Z,13.70
2022-12-01T08:31:18.862Z,12.70
2022-12-01T08:34:09.958Z,12.40
2022-12-01T08:37:00.506Z,12.70
2022-12-01T08:39:51.503Z,12.60
2022-12-01T08:42:42.612Z,12.20
2022-12-01T08:45:33.175Z,12.10
2022-12-01T08:48:23.737Z,11.80
2022-12-01T08:51:17.361Z,11.30
2022-12-01T08:54:07.963Z,10.60
2022-12-01T08:56:58.519Z,10.30
2022-12-01T08:59:51.443Z,10.20
2022-12-01T09:02:42.561Z,9.40
2022-12-01T09:05:33.263Z,10.40
2022-12-01T09:08:33.511Z,10.50
2022-12-01T09:11:24.046Z,9.60
2022-12-01T09:14:15.325Z,10.20
2022-12-01T09:17:06.073Z,9.60
2022-12-01T09:19:56.537Z,9.30
2022-12-01T09:22:47.151Z,9.10
2022-12-01T09:25:37.663Z,9.80
2022-12-01T09:28:28.509Z,9.00
2022-12-01T09:31:20.217Z,10.40
2022-12-01T09:34:13.492Z,10.90
2022-12-01T09:37:04.476Z,11.50
2022-12-01T09:39:55.372Z,11.80
2022-12-01T09:42:46.767Z,12.10
2022-12-01T09:45:40.024Z,11.90
2022-12-01T09:48:33.411Z,12.50
2022-12-01T09:51:25.701Z,12.20
2022-12-01T09:54:16.213Z,14.00
2022-12-01T09:57:06.764Z,13.40
2022-12-01T09:59:57.321Z,14.10
2022-12-01T10:02:52.561Z,13.70
2022-12-01T10:06:10.426Z,14.30
2022-12-01T10:09:03.812Z,12.40
2022-12-01T10:11:58.068Z,11.40
2022-12-01T10:14:49.481Z,11.80
2022-12-01T10:17:45.514Z,12.40
2022-12-01T10:23:51.276Z,11.50
2022-12-01T10:26:49.675Z,12.10
2022-12-01T10:29:47.788Z,12.00
2022-12-01T10:32:46.209Z,12.70
2022-12-01T10:35:38.808Z,13.40
2022-12-01T10:38:32.745Z,13.20
2022-12-01T10:41:24.248Z,13.10
2022-12-01T10:44:15.123Z,13.40
2022-12-01T10:47:05.707Z,12.10
2022-12-01T10:49:56.244Z,13.10
2022-12-01T10:52:48.353Z,14.80
2022-12-01T10:55:46.347Z,14.40
2022-12-01T10:58:47.468Z,13.50
2022-12-01T11:01:38.101Z,13.30
2022-12-01T11:04:44.611Z,13.90
2022-12-01T11:07:42.478Z,13.90
2022-12-01T11:10:33.603Z,13.40
2022-12-01T11:13:27.901Z,13.20
2022-12-01T11:16:41.069Z,13.60
2022-12-01T11:19:34.325Z,12.90
2022-12-01T11:22:27.055Z,13.50
2022-12-01T11:25:21.738Z,13.30
2022-12-01T11:28:20.314Z,13.00
2022-12-01T11:31:11.350Z,13.70
2022-12-01T11:34:02.026Z,13.00
2022-12-01T11:36:54.780Z,13.10
2022-12-01T11:39:46.081Z,12.80
2022-12-01T11:42:37.150Z,13.10
2022-12-01T11:45:31.984Z,12.30
2022-12-01T11:48:26.587Z,11.90
2022-12-01T11:51:29.352Z,11.70
2022-12-01T11:54:22.163Z,12.20
2022-12-01T11:57:33.120Z,11.80
2022-12-01T12:00:27.372Z,11.60
2022-12-01T12:03:23.271Z,11.80
2022-12-01T12:10:01.913Z,11.20
2022-12-01T12:13:32.072Z,10.60
2022-12-01T12:16:30.339Z,11.10
2022-12-01T12:20:07.061Z,10.50
2022-12-01T12:23:05.534Z,10.00
2022-12-01T12:26:03.356Z,9.90
2022-12-01T12:29:14.089Z,10.40
2022-12-01T12:32:19.109Z,9.50
2022-12-01T12:35:31.185Z,9.40
2022-12-01T12:38:43.967Z,9.40
2022-12-01T12:41:46.397Z,9.80
2022-12-01T12:44:50.360Z,9.70
2022-12-01T12:48:01.184Z,8.80
2022-12-01T12:51:02.755Z,8.90
2022-12-01T12:53:54.442Z,8.90
2022-12-01T12:56:47.457Z,8.50
2022-12-01T12:59:50.958Z,8.80
2022-12-01T13:03:09.928Z,8.30
2022-12-01T13:06:32.769Z,8.70
2022-12-01T13:09:43.685Z,8.90
2022-12-01T13:12:55.573Z,9.00
2022-12-01T13:16:02.430Z,9.10
2022-12-01T13:19:05.644Z,8.80
2022-12-01T13:22:04.613Z,9.40
2022-12-01T13:25:05.231Z,8.70
2022-12-01T13:28:03.267Z,8.90
2022-12-01T13:31:19.297Z,9.20
2022-12-01T13:34:26.813Z,9.10
2022-12-01T13:37:51.015Z,9.20
2022-12-01T13:40:53.868Z,8.80
2022-12-01T13:44:05.825Z,8.20
2022-12-01T13:47:48.456Z,8.60
2022-12-01T13:51:01.469Z,8.30
2022-12-01T13:54:08.183Z,8.20
2022-12-01T13:57:16.111Z,8.40
2022-12-01T14:00:29.094Z,8.50
2022-12-01T14:03:44.222Z,8.20
2022-12-01T14:06:49.394Z,8.40
2022-12-01T14:09:45.497Z,8.60
2022-12-01T14:12:42.367Z,7.90
2022-12-01T14:15:43.655Z,7.70
2022-12-01T14:18:40.684Z,8.00
2022-12-01T14:21:49.857Z,7.40
2022-12-01T14:24:49.736Z,8.10
2022-12-01T14:27:45.914Z,7.40
2022-12-01T14:31:09.231Z,8.00
2022-12-01T14:34:13.181Z,8.50
2022-12-01T14:37:13.677Z,9.50
2022-12-01T14:40:32.917Z,10.00
2022-12-01T14:43:51.508Z,9.00
2022-12-01T14:46:58.160Z,8.80
2022-12-01T14:50:02.572Z,8.10
2022-12-01T14:53:10.542Z,8.10
2022-12-01T14:56:16.205Z,7.70
2022-12-01T14:59:24.451Z,7.30
2022-12-01T15:02:26.227Z,7.50
2022-12-01T15:05:27.674Z,7.50
2022-12-01T15:08:43.661Z,6.80
2022-12-01T15:11:58.581Z,6.90
2022-12-01T15:15:00.234Z,7.00
2022-12-01T15:17:57.887Z,7.40
2022-12-01T15:20:52.784Z,6.70
2022-12-01T15:24:03.321Z,6.50
2022-12-01T15:27:03.768Z,6.60
2022-12-01T15:30:03.749Z,6.70
2022-12-01T15:33:05.512Z,6.70
2022-12-01T15:36:00.700Z,6.70
2022-12-01T15:39:06.748Z,7.00
2022-12-01T15:45:03.667Z,6.20
2022-12-01T15:48:29.465Z,6.20
2022-12-01T15:51:31.972Z,6.80
2022-12-01T15:54:33.910Z,6.30
2022-12-01T15:57:37.001Z,6.70
2022-12-01T16:00:35.945Z,6.20
2022-12-01T16:03:31.232Z,6.30
2022-12-01T16:06:33.479Z,6.30
2022-12-01T16:09:37.599Z,6.90
2022-12-01T16:12:39.376Z,6.20
2022-12-01T16:16:03.495Z,6.10
2022-12-01T16:19:33.296Z,6.80
2022-12-01T16:22:34.783Z,6.30
2022-12-01T16:25:49.287Z,6.20
2022-12-01T16:28:44.433Z,6.50
2022-12-01T16:31:58.493Z,7.00
2022-12-01T16:35:01.225Z,6.90
2022-12-01T16:38:05.185Z,6.20
2022-12-01T16:41:15.524Z,6.80
2022-12-01T16:44:28.065Z,6.50
2022-12-01T16:47:30.395Z,6.30
2022-12-01T16:50:26.218Z,6.70
2022-12-01T16:53:21.835Z,6.40
2022-12-01T16:56:23.286Z,6.60
2022-12-01T16:59:25.406Z,6.30
2022-12-01T17:02:28.146Z,6.10
2022-12-01T17:05:23.900Z,6.50
2022-12-01T17:08:26.222Z,6.60
2022-12-01T17:11:28.347Z,6.40
2022-12-01T17:14:23.761Z,6.50
2022-12-01T17:17:18.572Z,6.20
2022-12-01T17:20:15.525Z,6.60
2022-12-01T17:23:10.398Z,6.80
2022-12-01T17:26:07.448Z,6.50
2022-12-01T17:29:02.120Z,6.40
2022-12-01T17:31:56.884Z,6.60
2022-12-01T17:34:52.083Z,6.60
2022-12-01T17:37:46.952Z,6.20
2022-12-01T17:40:42.255Z,6.70
2022-12-01T17:43:37.843Z,6.90
2022-12-01T17:46:32.551Z,6.50
2022-12-01T17:52:28.010Z,7.00
2022-12-01T17:55:23.382Z,7.20
2022-12-01T17:58:21.805Z,7.00
2022-12-01T18:01:19.622Z,6.60
2022-12-01T18:04:14.389Z,6.90
2022-12-01T18:07:09.293Z,7.00
2022-12-01T18:10:04.065Z,7.20
2022-12-01T18:12:59.387Z,7.70
2022-12-01T18:15:54.223Z,7.60
2022-12-01T18:18:49.189Z,7.60
2022-12-01T18:21:43.936Z,7.30
2022-12-01T18:24:39.293Z,7.80
2022-12-01T18:27:34.196Z,7.00
2022-12-01T18:30:29.705Z,7.50
2022-12-01T18:33:24.742Z,7.10
2022-12-01T18:36:21.207Z,7.10
2022-12-01T18:39:15.934Z,6.70
2022-12-01T18:42:10.805Z,7.90
2022-12-01T18:45:05.716Z,7.10
2022-12-01T18:48:00.571Z,7.40
2022-12-01T18:50:59.387Z,7.50
2022-12-01T18:53:57.985Z,7.40
2022-12-01T18:56:58.902Z,7.20
2022-12-01T18:59:54.028Z,7.10
2022-12-01T19:02:48.789Z,7.30
2022-12-01T19:05:43.960Z,7.60
2022-12-01T19:08:38.654Z,7.20
2022-12-01T19:11:34.877Z,7.40
2022-12-01T19:14:30.768Z,7.20
2022-12-01T19:17:25.512Z,7.80
2022-12-01T19:20:20.771Z,7.80
2022-12-01T19:23:15.461Z,7.70
2022-12-01T19:26:12.371Z,8.10
2022-12-01T19:29:07.594Z,7.40
2022-12-01T19:32:02.347Z,8.20
2022-12-01T19:34:57.095Z,7.40
2022-12-01T19:37:52.438Z,7.10
2022-12-01T19:40:48.047Z,7.30
2022-12-01T19:43:43.527Z,7.20
2022-12-01T19:46:40.574Z,7.30
2022-12-01T19:49:35.656Z,7.40
2022-12-01T19:52:30.720Z,7.30
2022-12-01T19:55:26.848Z,7.30
2022-12-01T19:58:21.851Z,7.10
2022-12-01T20:01:18.056Z,7.10
2022-12-01T20:04:13.249Z,7.70
2022-12-01T20:07:08.439Z,6.90
2022-12-01T20:10:05.893Z,7.40
2022-12-01T20:13:00.734Z,7.60
2022-12-01T20:15:55.418Z,6.90
2022-12-01T20:18:50.242Z,7.00
2022-12-01T20:21:45.063Z,7.60
2022-12-01T20:24:42.194Z,7.10
2022-12-01T20:27:37.043Z,7.60
2022-12-01T20:30:31.994Z,6.50
2022-12-01T20:36:30.051Z,7.60
2022-12-01T20:39:20.796Z,7.00
2022-12-01T20:42:11.681Z,6.70
2022-12-01T20:45:02.725Z,7.30
2022-12-01T20:47:53.866Z,6.60
2022-12-01T20:50:44.422Z,6.20
2022-12-01T20:53:35.293Z,6.60
2022-12-01T20:56:25.932Z,6.60
2022-12-01T20:59:16.811Z,6.60
2022-12-01T21:02:07.404Z,6.30
2022-12-01T21:04:59.327Z,6.40
2022-12-01T21:07:50.690Z,6.30
2022-12-01T21:10:44.261Z,6.60
2022-12-01T21:13:44.414Z,6.50
2022-12-01T21:16:35.195Z,6.70
2022-12-01T21:19:30.860Z,6.70
2022-12-01T21:22:21.890Z,6.80
2022-12-01T21:25:18.089Z,7.40
2022-12-01T21:28:15.831Z,7.90
2022-12-01T21:31:13.785Z,8.90
2022-12-01T21:34:09.118Z,7.50
2022-12-01T21:37:01.845Z,8.30
2022-12-01T21:39:53.329Z,8.80
2022-12-01T21:42:43.920Z,9.00
2022-12-01T21:45:34.458Z,8.80
2022-12-01T21:48:25.000Z,8.50
2022-12-01T21:51:20.364Z,8.80
2022-12-01T21:54:15.490Z,8.40
2022-12-01T21:57:49.808Z,8.90
2022-12-01T22:03:44.853Z,8.80
2022-12-01T22:06:41.760Z,9.20
2022-12-01T22:09:38.119Z,9.80
2022-12-01T22:12:33.468Z,9.20
2022-12-01T22:15:37.646Z,9.20
2022-12-01T22:18:37.094Z,9.40
2022-12-01T22:21:41.025Z,9.30
2022-12-01T22:24:41.753Z,9.20
2022-12-01T22:27:38.291Z,9.50
2022-12-01T22:30:32.883Z,9.00
2022-12-01T22:33:27.995Z,9.40
2022-12-01T22:36:25.810Z,10.10
2022-12-01T22:39:31.605Z,9.60
2022-12-01T22:42:31.392Z,9.30
2022-12-01T22:45:27.821Z,9.80
2022-12-01T22:48:31.034Z,9.50
2022-12-01T22:51:39.144Z,9.70
2022-12-01T22:54:40.632Z,9.80
2022-12-01T22:57:37.333Z,9.70
2022-12-01T23:00:32.230Z,9.00
2022-12-01T23:03:27.062Z,10.60
2022-12-01T23:07:08.609Z,10.10
2022-12-01T23:10:16.116Z,9.80
2022-12-01T23:13:20.146Z,10.00
2022-12-01T23:16:15.498Z,10.30
2022-12-01T23:19:10.689Z,9.80
2022-12-01T23:22:05.311Z,9.60
2022-12-01T23:25:00.008Z,10.40
2022-12-01T23:28:03.558Z,10.00
2022-12-01T23:31:00.557Z,9.50
2022-12-01T23:33:55.051Z,9.50
2022-12-01T23:36:49.516Z,9.30
2022-12-01T23:39:44.046Z,10.20
2022-12-01T23:42:38.360Z,8.80
2022-12-01T23:45:33.100Z,9.10
2022-12-01T23:48:29.438Z,9.70
2022-12-01T23:51:26.766Z,9.70
2022-12-01T23:54:25.459Z,9.00
2022-12-01T23:57:25.255Z,9.40
